createdAt,value
2019-06-10T00:03:05.638Z,101666.00
2019-06-10T00:08:11.745Z,101667.00
2019-06-10T00:13:16.722Z,101657.00
2019-06-10T00:18:35.462Z,101650.00
2019-06-10T00:23:27.355Z,101644.00
2019-06-10T00:28:31.776Z,101651.00
2019-06-10T00:33:36.461Z,101641.00
2019-06-10T00:38:41.281Z,101621.00
2019-06-10T00:43:45.844Z,101612.00
2019-06-10T00:48:50.885Z,101595.00
2019-06-10T00:53:55.679Z,101603.00
2019-06-10T00:59:01.033Z,101601.00
2019-06-10T01:04:07.045Z,101591.00
2019-06-10T01:09:14.821Z,101588.00
2019-06-10T01:14:21.366Z,101600.00
2019-06-10T01:19:25.371Z,101596.00
2019-06-10T01:24:31.448Z,101589.00
2019-06-10T01:29:36.029Z,101586.00
2019-06-10T01:34:41.659Z,101581.00
2019-06-10T01:39:46.333Z,101581.00
2019-06-10T01:44:50.824Z,101567.00
2019-06-10T01:49:55.398Z,101561.00
2019-06-10T01:55:01.530Z,101553.00
2019-06-10T02:00:13.421Z,101553.00
2019-06-10T02:05:16.675Z,101538.00
2019-06-10T02:10:23.019Z,101535.00
2019-06-10T02:15:27.664Z,101515.00
2019-06-10T02:20:32.080Z,101502.00
2019-06-10T02:25:36.486Z,101505.00
2019-06-10T02:30:50.233Z,101495.00
2019-06-10T02:35:49.203Z,101501.00
2019-06-10T02:40:54.044Z,101494.00
2019-06-10T02:45:58.685Z,101487.00
2019-06-10T02:51:06.452Z,101482.00
2019-06-10T02:56:12.609Z,101477.00
2019-06-10T03:01:19.366Z,101477.00
2019-06-10T03:06:31.842Z,101474.00
2019-06-10T03:11:35.718Z,101464.00
2019-06-10T03:16:42.159Z,101444.00
2019-06-10T03:21:46.427Z,101435.00
2019-06-10T03:26:52.214Z,101435.00
2019-06-10T03:31:57.000Z,101454.00
2019-06-10T03:37:02.439Z,101439.00
2019-06-10T03:42:07.086Z,101435.00
2019-06-10T03:47:12.155Z,101433.00
2019-06-10T03:52:17.124Z,101432.00
2019-06-10T03:57:23.791Z,101413.00
2019-06-10T04:02:28.508Z,101430.00
2019-06-10T04:07:34.216Z,101416.00
2019-06-10T04:12:38.948Z,101406.00
2019-06-10T04:17:43.531Z,101409.00
2019-06-10T04:22:48.043Z,101403.00
2019-06-10T04:27:52.616Z,101395.00
2019-06-10T04:32:57.027Z,101394.00
2019-06-10T04:38:02.558Z,101385.00
2019-06-10T04:43:07.244Z,101374.00
2019-06-10T04:48:12.446Z,101376.00
2019-06-10T04:53:17.208Z,101388.00
2019-06-10T04:58:24.484Z,101372.00
2019-06-10T05:03:28.362Z,101376.00
2019-06-10T05:08:34.248Z,101373.00
2019-06-10T05:13:38.675Z,101365.00
2019-06-10T05:18:43.235Z,101367.00
2019-06-10T05:23:47.745Z,101366.00
2019-06-10T05:28:52.533Z,101350.00
2019-06-10T05:33:57.032Z,101352.00
2019-06-10T05:39:02.780Z,101350.00
2019-06-10T05:44:07.405Z,101340.00
2019-06-10T05:49:12.506Z,101333.00
2019-06-10T05:54:17.321Z,101335.00
2019-06-10T05:59:23.015Z,101346.00
2019-06-10T06:04:28.068Z,101344.00
2019-06-10T06:09:35.141Z,101343.00
2019-06-10T06:14:38.670Z,101341.00
2019-06-10T06:19:43.421Z,101342.00
2019-06-10T06:24:47.995Z,101336.00
2019-06-10T06:29:52.577Z,101339.00
2019-06-10T06:34:57.044Z,101327.00
2019-06-10T06:40:02.838Z,101333.00
2019-06-10T06:45:08.364Z,101319.00
2019-06-10T06:50:14.524Z,101321.00
2019-06-10T06:55:19.266Z,101322.00
2019-06-10T07:00:53.177Z,101316.00
2019-06-10T07:05:43.374Z,101321.00
2019-06-10T07:10:48.678Z,101322.00
2019-06-10T07:15:53.586Z,101314.00
2019-06-10T07:20:58.180Z,101303.00
2019-06-10T07:26:02.769Z,101303.00
2019-06-10T07:31:19.911Z,101303.00
2019-06-10T07:36:13.403Z,101291.00
2019-06-10T07:41:18.015Z,101293.00
2019-06-10T07:46:23.131Z,101292.00
2019-06-10T07:51:27.841Z,101286.00
2019-06-10T07:56:38.234Z,101284.00
2019-06-10T08:01:43.724Z,101258.00
2019-06-10T08:06:45.850Z,101265.00
2019-06-10T08:11:53.141Z,101283.00
2019-06-10T08:16:56.705Z,101278.00
2019-06-10T08:22:02.950Z,101280.00
2019-06-10T08:27:07.714Z,101266.00
2019-06-10T08:32:13.089Z,101256.00
2019-06-10T08:37:18.055Z,101247.00
2019-06-10T08:42:23.319Z,101243.00
2019-06-10T08:47:28.844Z,101241.00
2019-06-10T08:52:48.867Z,101232.00
2019-06-10T08:57:42.947Z,101233.00
2019-06-10T09:02:49.884Z,101240.00
2019-06-10T09:07:54.470Z,101233.00
2019-06-10T09:12:58.616Z,101216.00
2019-06-10T09:18:03.184Z,101232.00
2019-06-10T09:23:21.567Z,101229.00
2019-06-10T09:28:15.264Z,101242.00
2019-06-10T09:33:22.379Z,101241.00
2019-06-10T09:38:26.408Z,101226.00
2019-06-10T09:43:33.272Z,101222.00
2019-06-10T09:48:37.252Z,101226.00
2019-06-10T09:53:50.295Z,101226.00
2019-06-10T09:58:50.818Z,101207.00
2019-06-10T10:03:59.995Z,101199.00
2019-06-10T10:09:03.998Z,101193.00
2019-06-10T10:14:10.639Z,101202.00
2019-06-10T10:19:15.056Z,101197.00
2019-06-10T10:24:19.691Z,101199.00
2019-06-10T10:29:24.350Z,101191.00
2019-06-10T10:34:29.406Z,101180.00
2019-06-10T10:39:33.863Z,101186.00
2019-06-10T10:44:38.497Z,101170.00
2019-06-10T10:49:43.006Z,101164.00
2019-06-10T10:54:47.929Z,101165.00
2019-06-10T10:59:56.057Z,101168.00
2019-06-10T11:05:00.018Z,101170.00
2019-06-10T11:10:07.525Z,101182.00
2019-06-10T11:15:15.240Z,101171.00
2019-06-10T11:20:22.455Z,101167.00
2019-06-10T11:25:27.107Z,101177.00
2019-06-10T11:30:32.455Z,101175.00
2019-06-10T11:35:37.353Z,101162.00
2019-06-10T11:40:42.820Z,101164.00
2019-06-10T11:45:52.674Z,101149.00
2019-06-10T11:50:57.148Z,101140.00
2019-06-10T11:56:02.398Z,101135.00
2019-06-10T12:01:06.604Z,101124.00
2019-06-10T12:06:13.579Z,101122.00
2019-06-10T12:11:17.746Z,101126.00
2019-06-10T12:21:29.805Z,101131.00
2019-06-10T12:26:34.333Z,101116.00
2019-06-10T12:31:38.992Z,101103.00
2019-06-10T12:36:43.551Z,101110.00
2019-06-10T12:41:48.021Z,101091.00
2019-06-10T12:46:54.910Z,101100.00
2019-06-10T12:51:59.271Z,101106.00
2019-06-10T12:57:05.272Z,101110.00
2019-06-10T13:02:21.281Z,101099.00
2019-06-10T13:07:17.342Z,101107.00
2019-06-10T13:12:22.926Z,101099.00
2019-06-10T13:17:28.807Z,101083.00
2019-06-10T13:22:33.386Z,101093.00
2019-06-10T13:27:37.965Z,101085.00
2019-06-10T13:32:43.470Z,101088.00
2019-06-10T13:37:48.093Z,101087.00
2019-06-10T13:42:52.812Z,101093.00
2019-06-10T13:47:58.774Z,101073.00
2019-06-10T13:53:05.384Z,101065.00
2019-06-10T13:58:11.669Z,101067.00
2019-06-10T14:03:16.538Z,101067.00
2019-06-10T14:08:23.301Z,101066.00
2019-06-10T14:13:27.515Z,101040.00
2019-06-10T14:18:33.441Z,101039.00
2019-06-10T14:23:38.627Z,101028.00
2019-06-10T14:28:44.310Z,101024.00
2019-06-10T14:33:49.205Z,101009.00
2019-06-10T14:39:01.200Z,101014.00
2019-06-10T14:44:06.760Z,101017.00
2019-06-10T14:49:14.052Z,101023.00
2019-06-10T14:54:18.409Z,101022.00
2019-06-10T14:59:23.920Z,101016.00
2019-06-10T15:04:28.712Z,101012.00
2019-06-10T15:09:33.585Z,101008.00
2019-06-10T15:14:38.145Z,101004.00
2019-06-10T15:19:42.763Z,100991.00
2019-06-10T15:24:47.364Z,100983.00
2019-06-10T15:29:52.568Z,100975.00
2019-06-10T15:34:57.361Z,100986.00
2019-06-10T15:40:03.619Z,100964.00
2019-06-10T15:45:09.811Z,100965.00
2019-06-10T15:50:16.090Z,100965.00
2019-06-10T15:55:47.749Z,100970.00
2019-06-10T16:00:29.118Z,100952.00
2019-06-10T16:05:34.433Z,100976.00
2019-06-10T16:10:38.938Z,100980.00
2019-06-10T16:15:43.573Z,100974.00
2019-06-10T16:20:48.004Z,100974.00
2019-06-10T16:25:53.452Z,100974.00
2019-06-10T16:30:58.291Z,100974.00
2019-06-10T16:36:03.089Z,100967.00
2019-06-10T16:41:07.785Z,100974.00
2019-06-10T16:46:12.210Z,100983.00
2019-06-10T16:51:17.433Z,100979.00
2019-06-10T16:56:24.411Z,100981.00
2019-06-10T17:01:30.267Z,100982.00
2019-06-10T17:06:34.734Z,100992.00
2019-06-10T17:11:39.246Z,100991.00
2019-06-10T17:16:43.780Z,100968.00
2019-06-10T17:21:48.413Z,100978.00
2019-06-10T17:26:53.297Z,100973.00
2019-06-10T17:31:57.942Z,100986.00
2019-06-10T17:37:03.152Z,101009.00
2019-06-10T17:42:08.227Z,100993.00
2019-06-10T17:47:14.266Z,100996.00
2019-06-10T17:52:19.101Z,101002.00
2019-06-10T17:57:28.300Z,101002.00
2019-06-10T18:02:34.567Z,100989.00
2019-06-10T18:07:39.002Z,100977.00
2019-06-10T18:12:43.468Z,100978.00
2019-06-10T18:17:47.976Z,100979.00
2019-06-10T18:22:52.930Z,100979.00
2019-06-10T18:27:57.666Z,100965.00
2019-06-10T18:33:02.914Z,100972.00
2019-06-10T18:38:07.503Z,100961.00
2019-06-10T18:43:13.037Z,100941.00
2019-06-10T18:48:17.625Z,100946.00
2019-06-10T18:53:23.400Z,100937.00
2019-06-10T18:58:28.306Z,100946.00
2019-06-10T19:03:36.248Z,100953.00
2019-06-10T19:08:41.341Z,100942.00
2019-06-10T19:13:46.010Z,100923.00
2019-06-10T19:18:52.870Z,100918.00
2019-06-10T19:23:56.750Z,100935.00
2019-06-10T19:29:03.565Z,100932.00
2019-06-10T19:34:07.455Z,100932.00
2019-06-10T19:39:13.172Z,100932.00
2019-06-10T19:44:18.652Z,100939.00
2019-06-10T19:49:23.237Z,100925.00
2019-06-10T19:54:27.653Z,100922.00
2019-06-10T19:59:48.456Z,100893.00
2019-06-10T20:04:39.711Z,100889.00
2019-06-10T20:09:46.135Z,100879.00
2019-06-10T20:14:52.891Z,100886.00
2019-06-10T20:19:57.670Z,100874.00
2019-06-10T20:25:03.753Z,100882.00
2019-06-10T20:30:23.760Z,100892.00
2019-06-10T20:35:17.856Z,100869.00
2019-06-10T20:40:22.408Z,100865.00
2019-06-10T20:45:26.927Z,100838.00
2019-06-10T20:50:32.307Z,100828.00
2019-06-10T20:55:43.346Z,100823.00
2019-06-10T21:00:51.019Z,100828.00
2019-06-10T21:05:53.481Z,100873.00
2019-06-10T21:10:57.719Z,100890.00
2019-06-10T21:16:03.646Z,100879.00
2019-06-10T21:21:08.519Z,100876.00
2019-06-10T21:26:13.984Z,100868.00
2019-06-10T21:31:18.742Z,100877.00
2019-06-10T21:36:23.328Z,100885.00
2019-06-10T21:41:27.834Z,100892.00
2019-06-10T21:46:32.711Z,100889.00
2019-06-10T21:51:45.296Z,100883.00
2019-06-10T21:56:47.335Z,100870.00
2019-06-10T22:01:51.755Z,100834.00
2019-06-10T22:06:56.436Z,100833.00
2019-06-10T22:12:02.904Z,100877.00
2019-06-10T22:17:07.171Z,100882.00
2019-06-10T22:22:12.947Z,100872.00
2019-06-10T22:27:17.515Z,100863.00
2019-06-10T22:32:22.155Z,100844.00
2019-06-10T22:37:26.787Z,100830.00
2019-06-10T22:42:32.736Z,100824.00
2019-06-10T22:47:37.278Z,100830.00
2019-06-10T22:52:42.596Z,100816.00
2019-06-10T22:57:48.580Z,100807.00
2019-06-10T23:02:55.826Z,100800.00
2019-06-10T23:07:59.460Z,100801.00
2019-06-10T23:13:03.959Z,100792.00
2019-06-10T23:18:08.387Z,100810.00
2019-06-10T23:23:13.143Z,100797.00
2019-06-10T23:28:17.573Z,100802.00
2019-06-10T23:33:22.937Z,100788.00
2019-06-10T23:38:27.572Z,100791.00
2019-06-10T23:43:33.010Z,100777.00
2019-06-10T23:48:37.560Z,100789.00
2019-06-10T23:53:42.051Z,100805.00
2019-06-10T23:58:46.531Z,100805.00
